Flight Track Log - Related Links

Times and Time Zones

All times are in EDT time to prevent confusion due to time zone crossing. See the AAL2345 flight status page for this flight to view local times or setup timezone preferences in your user account.

Time Position Orientation Groundspeed Altitude Reporting Facility
EDT Latitude Longitude Course Direction KTS MPH feet Rate Location/Type
Fri 07:39:53 PM 41.9333 -87.9167 194° South 186 214 1,900  Level Chicago TRACON
Fri 07:40:53 PM 41.8833 -87.9667 217° Southwest 214 246 3,900 2,000 Climbing Chicago TRACON
Fri 07:41:53 PM 41.8167 -87.9667 180° South 253 291 5,900 2,060 Climbing Chicago TRACON
Fri 07:43:07 PM 41.7364 -87.9719 183° South 275 316 8,500 2,250 Climbing Chicago Center
Fri 07:44:00 PM 41.6125 -88.3420 203° Southwest  Level Estimated
Fri 07:44:09 PM 41.6689 -88.0164 206° Southwest 272 313 11,000  Level Chicago Center
Fri 07:45:00 PM 41.5385 -88.4285 194° South  Level Estimated
Fri 07:45:11 PM 41.5944 -88.0592 203° Southwest 288 331 13,200  Level Chicago Center
Fri 07:46:13 PM 41.5150 -88.1108 206° Southwest 317 365 14,300 1,548 Climbing Chicago Center
Fri 07:47:15 PM 41.4083 -88.1783 205° Southwest 364 419 16,400 1,984 Climbing Chicago Center
Fri 07:48:17 PM 41.3092 -88.2194 197° South 383 441 18,400 1,984 Climbing Chicago Center
Fri 07:49:19 PM 41.2092 -88.2686 200° South 386 444 20,500 1,694 Climbing Chicago Center
Fri 07:50:21 PM 41.1075 -88.3228 202° Southwest 393 452 21,900 1,500 Climbing Chicago Center
Fri 07:51:23 PM 40.9786 -88.3719 196° South 405 466 23,600 1,440 Climbing Chicago Center
Fri 07:52:26 PM 40.8950 -88.4669 221° Southwest 408 470 24,900 1,248 Climbing Chicago Center
Fri 07:53:28 PM 40.8158 -88.5714 225° Southwest 403 464 26,200 1,258 Climbing Chicago Center
Fri 07:54:30 PM 40.7256 -88.6608 217° Southwest 408 470 27,500 1,258 Climbing Chicago Center
Fri 07:55:32 PM 40.6397 -88.7539 219° Southwest 403 464 28,800 1,065 Climbing Chicago Center
Fri 07:56:34 PM 40.5422 -88.8578 219° Southwest 393 452 29,700 532 Climbing Chicago Center
Fri 07:57:36 PM 40.4597 -88.9444 219° Southwest 383 441 29,900 145 Climbing Chicago Center
Fri 07:58:38 PM 40.3772 -89.0350 220° Southwest 385 443 30,000 48 Climbing Chicago Center
Fri 07:59:40 PM 40.2944 -89.1242 219° Southwest 384 442 30,000  Level Chicago Center
Fri 08:00:42 PM 40.2114 -89.2133 219° Southwest 385 443 30,000  Level Chicago Center
Fri 08:01:44 PM 40.1297 -89.3022 220° Southwest 382 440 30,000  Level Chicago Center
Fri 08:02:34 PM 40.0642 -89.3711 219° Southwest 382 440 30,000  Level Kansas City Center
Fri 08:03:38 PM 39.9653 -89.4761 219° Southwest 381 438 30,000  Level Kansas City Center
Fri 08:04:38 PM 39.8839 -89.5650 220° Southwest 381 438 30,000  Level Kansas City Center
Fri 08:05:42 PM 39.8008 -89.6522 219° Southwest 382 440 30,000  Level Kansas City Center
Fri 08:06:42 PM 39.7181 -89.7403 219° Southwest 383 441 30,000  Level Kansas City Center
Fri 08:07:45 PM 39.6389 -89.8256 220° Southwest 383 441 30,000  Level Kansas City Center
Fri 08:08:45 PM 39.5553 -89.9122 219° Southwest 384 442 30,000  Level Kansas City Center
Fri 08:09:49 PM 39.4564 -90.0178 220° Southwest 385 443 30,000  Level Kansas City Center
Fri 08:10:51 PM 39.3747 -90.1039 219° Southwest 381 438 30,000  Level Kansas City Center
Fri 08:11:52 PM 39.2919 -90.1903 219° Southwest 383 441 30,000  Level Kansas City Center
Fri 08:12:54 PM 39.2097 -90.2767 219° Southwest 383 441 30,000  Level Kansas City Center
Fri 08:13:55 PM 39.1278 -90.3628 219° Southwest 382 440 30,000  Level Kansas City Center
Fri 08:14:58 PM 39.0450 -90.4486 219° Southwest 385 443 30,000  Level Kansas City Center
Fri 08:16:00 PM 38.9453 -90.5525 219° Southwest 387 445 30,000  Level Kansas City Center
Fri 08:17:00 PM 38.8692 -90.6306 219° Southwest 382 440 30,000  Level Kansas City Center
Fri 08:18:04 PM 38.7800 -90.7211 218° Southwest 386 444 30,000  Level Kansas City Center
Fri 08:19:04 PM 38.6961 -90.8050 218° Southwest 386 444 30,000  Level Kansas City Center
Fri 08:20:08 PM 38.5956 -90.9089 219° Southwest 388 447 30,000  Level Kansas City Center
Fri 08:21:09 PM 38.5106 -90.9947 218° Southwest 390 449 30,000  Level Kansas City Center
Fri 08:22:09 PM 38.4253 -91.0808 218° Southwest 393 452 30,000  Level Kansas City Center
Fri 08:23:13 PM 38.3406 -91.1664 218° Southwest 392 451 30,000  Level Kansas City Center
Fri 08:24:14 PM 38.2539 -91.2531 218° Southwest 394 453 30,000  Level Kansas City Center
Fri 08:25:15 PM 38.1689 -91.3378 218° Southwest 392 451 30,000  Level Kansas City Center
Fri 08:26:18 PM 38.0792 -91.4253 218° Southwest 395 455 30,000  Level Kansas City Center
Fri 08:27:20 PM 37.9750 -91.5289 218° Southwest 395 455 30,000  Level Kansas City Center
Fri 08:28:22 PM 37.8867 -91.6164 218° Southwest 398 458 30,000  Level Kansas City Center
Fri 08:29:23 PM 37.7992 -91.7036 218° Southwest 399 459 30,000  Level Kansas City Center
Fri 08:30:24 PM 37.7131 -91.7919 219° Southwest 397 457 30,000  Level Kansas City Center
Fri 08:31:27 PM 37.6244 -91.8781 218° Southwest 398 458 30,000  Level Kansas City Center
Fri 08:32:28 PM 37.5356 -91.9650 218° Southwest 399 459 30,000  Level Kansas City Center
Fri 08:33:31 PM 37.4514 -92.0556 221° Southwest 397 457 30,000  Level Kansas City Center
Fri 08:34:31 PM 37.3681 -92.1500 222° Southwest 398 458 30,000  Level Kansas City Center
Fri 08:35:35 PM 37.2839 -92.2425 221° Southwest 399 459 30,000  Level Kansas City Center
Fri 08:36:37 PM 37.1997 -92.3350 221° Southwest 399 459 30,000  Level Kansas City Center
Fri 08:37:38 PM 37.0997 -92.4464 222° Southwest 399 459 30,000  Level Kansas City Center
Fri 08:38:39 PM 37.0169 -92.5367 221° Southwest 396 456 30,000  Level Kansas City Center
Fri 08:39:39 PM 36.9322 -92.6281 221° Southwest 398 458 30,000  Level Kansas City Center
Fri 08:40:41 PM 36.8489 -92.7181 221° Southwest 397 457 30,000  Level Kansas City Center
Fri 08:41:45 PM 36.7653 -92.8081 221° Southwest 395 455 30,000  Level Kansas City Center
Fri 08:42:45 PM 36.6817 -92.8983 221° Southwest 397 457 30,000  Level Kansas City Center
Fri 08:43:46 PM 36.5886 -92.9964 220° Southwest 397 457 30,000  Level Kansas City Center
Fri 08:44:48 PM 36.5050 -93.0867 221° Southwest 399 459 30,000  Level Kansas City Center
Fri 08:45:51 PM 36.4208 -93.1769 221° Southwest 401 461 30,000  Level Kansas City Center
Fri 08:46:28 PM 36.3672 -93.2408 224° Southwest 400 460 30,000  Level Memphis Center
Fri 08:47:28 PM 36.2858 -93.3281 221° Southwest 400 460 30,000  Level Memphis Center
Fri 08:48:27 PM 36.2003 -93.4203 221° Southwest 400 460 30,000  Level Memphis Center
Fri 08:49:27 PM 36.1147 -93.5119 221° Southwest 400 460 30,000  Level Memphis Center
Fri 08:50:28 PM 36.0289 -93.6011 220° Southwest 405 466 30,000  Level Memphis Center
Fri 08:51:27 PM 35.9411 -93.6925 220° Southwest 405 466 30,000  Level Memphis Center
Fri 08:52:27 PM 35.8553 -93.7814 220° Southwest 405 466 30,000  Level Memphis Center
Fri 08:53:27 PM 35.7714 -93.8725 221° Southwest 410 472 30,000  Level Memphis Center
Fri 08:54:27 PM 35.6853 -93.9633 221° Southwest 410 472 30,000  Level Memphis Center
Fri 08:55:27 PM 35.6014 -94.0542 221° Southwest 415 478 30,000  Level Memphis Center
Fri 08:56:27 PM 35.5131 -94.1422 219° Southwest 410 472 30,000  Level Memphis Center
Fri 08:57:27 PM 35.4269 -94.2300 220° Southwest 410 472 30,000  Level Memphis Center
Fri 08:58:27 PM 35.3450 -94.3203 222° Southwest 410 472 30,000  Level Memphis Center
Fri 08:59:27 PM 35.2608 -94.4106 221° Southwest 410 472 30,000  Level Memphis Center
Fri 09:01:23 PM 35.0911 -94.5972 222° Southwest 410 472 30,000  Level Fort Worth Center
Fri 09:02:23 PM 35.0056 -94.6911 222° Southwest 410 472 30,000  Level Fort Worth Center
Fri 09:03:23 PM 34.9219 -94.7825 222° Southwest 410 472 30,000  Level Fort Worth Center
Fri 09:04:23 PM 34.8361 -94.8736 221° Southwest 410 472 30,000  Level Fort Worth Center
Fri 09:05:23 PM 34.7525 -94.9647 222° Southwest 405 466 30,000  Level Fort Worth Center
Fri 09:06:23 PM 34.6536 -95.0356 211° Southwest 411 473 30,000  Level Fort Worth Center
Fri 09:07:23 PM 34.5344 -95.0189 173° South 407 468 30,000  Level Fort Worth Center
Fri 09:08:23 PM 34.4169 -94.9867 167° South 412 474 30,000  Level Fort Worth Center
Fri 09:09:23 PM 34.2975 -94.9575 169° South 433 498 30,000  Level Fort Worth Center
Fri 09:10:23 PM 34.1922 -95.0106 203° Southwest 396 456 30,000  Level Fort Worth Center
Fri 09:11:23 PM 34.1275 -95.1278 236° Southwest 378 435 30,000 -150 Level Fort Worth Center
Fri 09:12:23 PM 34.0669 -95.2472 239° Southwest 396 456 29,700 -600 Descending Fort Worth Center
Fri 09:13:23 PM 34.0044 -95.3667 238° Southwest 414 476 28,800 -950 Descending Fort Worth Center
Fri 09:14:23 PM 33.9394 -95.4833 236° Southwest 426 490 27,800 -1,050 Descending Fort Worth Center
Fri 09:15:23 PM 33.8764 -95.5922 235° Southwest 419 482 26,700 -1,050 Descending Fort Worth Center
Fri 09:16:23 PM 33.8153 -95.7011 236° Southwest 404 465 25,700 -1,000 Descending Fort Worth Center
Fri 09:17:23 PM 33.7500 -95.8072 234° Southwest 404 465 24,700 -1,050 Descending Fort Worth Center
Fri 09:18:23 PM 33.6864 -95.9131 234° Southwest 399 459 23,600 -1,050 Descending Fort Worth Center
Fri 09:19:23 PM 33.6314 -96.0089 235° Southwest 399 459 22,600 -1,400 Descending Fort Worth Center
Fri 09:20:23 PM 33.5614 -96.1222 233° Southwest 394 453 20,800 -1,950 Descending Fort Worth Center
Fri 09:21:23 PM 33.5083 -96.2178 236° Southwest 388 447 18,700 -2,300 Descending Fort Worth Center
Fri 09:22:23 PM 33.4383 -96.3331 234° Southwest 388 447 16,200 -2,200 Descending Fort Worth Center
Fri 09:23:23 PM 33.3786 -96.4233 232° Southwest 388 447 14,300 -2,000 Descending Fort Worth Center
Fri 09:24:23 PM 33.3000 -96.5186 225° Southwest 383 441 12,200 -1,600 Descending Fort Worth Center
Fri 09:25:23 PM 33.2233 -96.6064 224° Southwest 377 434 11,100 -600 Descending Fort Worth Center
Fri 09:26:23 PM 33.1631 -96.6839 227° Southwest 377 434 11,000 -50 Descending Fort Worth Center
Fri 09:27:23 PM 33.0844 -96.7761 225° Southwest 372 428 11,000  Level Fort Worth Center
Fri 09:28:23 PM 33.0200 -96.8511 224° Southwest 336 387 11,000 -100 Level Fort Worth Center
Fri 09:29:23 PM 32.9556 -96.9033 214° Southwest 311 358 10,800 -850 Descending Fort Worth Center
Fri 09:30:23 PM 32.8928 -96.9014 179° South 274 315 9,300 -1,500 Descending Fort Worth Center
Fri 09:31:23 PM 32.8094 -96.9067 183° South 274 315 7,800 -1,650 Descending Fort Worth Center
Fri 09:32:23 PM 32.7383 -96.9169 187° South 274 315 6,000 -1,600 Descending Fort Worth Center
Fri 09:33:23 PM 32.6656 -96.9444 198° South 262 302 4,600 -992 Descending Fort Worth Center
Fri 09:34:24 PM 32.6594 -97.0086 264° West 196 226 4,000 -600 Descending Fort Worth Center
Fri 09:35:23 PM 32.7158 -97.0356 338° Northwest 110 127 3,400 -662 Descending Fort Worth Center
Fri 09:36:49 PM 32.7833 -97.0333 North 175 201 2,400 -740 Descending Dallas / Fort Worth TRACON
Fri 09:37:49 PM 32.8333 -97.0333 360° North 124 143 1,600 -700 Descending Dallas / Fort Worth TRACON
Fri 09:38:49 PM 32.8667 -97.0333 360° North 132 152 1,000 -600 Descending Dallas / Fort Worth TRACON

Login

Don't have an account? Register now (free) for customized features, flight alerts, and more!